sensor_id;sensor_type;location;lat;lon;timestamp;P1;durP1;ratioP1;P2;durP2;ratioP2
74519;SDS011;63002;48.134;-1.948;2023-07-16T05:01:30;4.25;;;1.30;;
74519;SDS011;63002;48.134;-1.948;2023-07-16T05:03:56;3.92;;;1.10;;
74519;SDS011;63002;48.134;-1.948;2023-07-16T05:06:22;2.83;;;1.20;;
74519;SDS011;63002;48.134;-1.948;2023-07-16T05:08:48;4.60;;;1.23;;
74519;SDS011;63002;48.134;-1.948;2023-07-16T05:11:13;4.97;;;1.60;;
74519;SDS011;63002;48.134;-1.948;2023-07-16T05:13:39;4.03;;;1.27;;
74519;SDS011;63002;48.134;-1.948;2023-07-16T05:16:05;3.93;;;1.20;;
74519;SDS011;63002;48.134;-1.948;2023-07-16T05:18:30;4.20;;;1.30;;
74519;SDS011;63002;48.134;-1.948;2023-07-16T05:20:56;4.00;;;1.30;;
74519;SDS011;63002;48.134;-1.948;2023-07-16T05:23:22;3.40;;;1.08;;
74519;SDS011;63002;48.134;-1.948;2023-07-16T05:25:48;3.77;;;1.20;;
74519;SDS011;63002;48.134;-1.948;2023-07-16T05:28:15;3.00;;;1.00;;
74519;SDS011;63002;48.134;-1.948;2023-07-16T05:30:41;4.03;;;1.20;;
74519;SDS011;63002;48.134;-1.948;2023-07-16T05:33:07;3.40;;;1.10;;
74519;SDS011;63002;48.134;-1.948;2023-07-16T05:35:32;4.53;;;1.20;;
74519;SDS011;63002;48.134;-1.948;2023-07-16T05:37:58;4.87;;;1.10;;
74519;SDS011;63002;48.134;-1.948;2023-07-16T05:40:24;3.92;;;1.30;;
74519;SDS011;63002;48.134;-1.948;2023-07-16T05:42:49;3.83;;;1.10;;
74519;SDS011;63002;48.134;-1.948;2023-07-16T05:45:15;3.72;;;1.05;;
74519;SDS011;63002;48.134;-1.948;2023-07-16T05:47:41;4.93;;;1.57;;
74519;SDS011;63002;48.134;-1.948;2023-07-16T05:50:07;4.18;;;1.20;;
74519;SDS011;63002;48.134;-1.948;2023-07-16T05:52:33;3.90;;;1.02;;
74519;SDS011;63002;48.134;-1.948;2023-07-16T05:54:58;4.28;;;1.17;;
74519;SDS011;63002;48.134;-1.948;2023-07-16T05:57:24;4.33;;;1.47;;
74519;SDS011;63002;48.134;-1.948;2023-07-16T05:59:50;4.53;;;1.30;;
74519;SDS011;63002;48.134;-1.948;2023-07-16T06:02:15;4.67;;;1.40;;
74519;SDS011;63002;48.134;-1.948;2023-07-16T06:04:41;4.25;;;1.27;;
74519;SDS011;63002;48.134;-1.948;2023-07-16T06:07:07;4.47;;;1.10;;
74519;SDS011;63002;48.134;-1.948;2023-07-16T06:09:33;3.10;;;1.02;;
74519;SDS011;63002;48.134;-1.948;2023-07-16T06:11:58;3.97;;;1.20;;
74519;SDS011;63002;48.134;-1.948;2023-07-16T06:14:24;4.10;;;1.30;;
74519;SDS011;63002;48.134;-1.948;2023-07-16T06:16:50;3.05;;;0.90;;
74519;SDS011;63002;48.134;-1.948;2023-07-16T06:19:16;3.70;;;1.13;;
74519;SDS011;63002;48.134;-1.948;2023-07-16T06:21:41;3.95;;;1.27;;
74519;SDS011;63002;48.134;-1.948;2023-07-16T06:24:07;4.27;;;1.30;;
74519;SDS011;63002;48.134;-1.948;2023-07-16T06:26:33;3.35;;;1.10;;
74519;SDS011;63002;48.134;-1.948;2023-07-16T06:28:58;3.80;;;1.27;;
74519;SDS011;63002;48.134;-1.948;2023-07-16T06:31:24;3.83;;;1.10;;
74519;SDS011;63002;48.134;-1.948;2023-07-16T06:33:50;2.90;;;0.97;;
74519;SDS011;63002;48.134;-1.948;2023-07-16T06:36:15;3.17;;;1.10;;
74519;SDS011;63002;48.134;-1.948;2023-07-16T06:38:41;3.43;;;1.10;;
74519;SDS011;63002;48.134;-1.948;2023-07-16T06:41:07;3.28;;;0.95;;
74519;SDS011;63002;48.134;-1.948;2023-07-16T06:43:33;3.77;;;1.10;;
74519;SDS011;63002;48.134;-1.948;2023-07-16T06:45:58;3.10;;;1.05;;
74519;SDS011;63002;48.134;-1.948;2023-07-16T06:48:24;3.57;;;1.13;;
74519;SDS011;63002;48.134;-1.948;2023-07-16T06:50:50;3.65;;;1.20;;
74519;SDS011;63002;48.134;-1.948;2023-07-16T06:53:16;2.95;;;0.88;;
74519;SDS011;63002;48.134;-1.948;2023-07-16T06:55:42;4.30;;;1.63;;
74519;SDS011;63002;48.134;-1.948;2023-07-16T06:58:10;4.15;;;1.02;;
74519;SDS011;63002;48.134;-1.948;2023-07-16T07:00:38;3.70;;;1.03;;
74519;SDS011;63002;48.134;-1.948;2023-07-16T07:03:04;4.05;;;1.35;;
74519;SDS011;63002;48.134;-1.948;2023-07-16T07:05:30;4.50;;;1.43;;
74519;SDS011;63002;48.134;-1.948;2023-07-16T07:07:55;3.45;;;1.10;;
74519;SDS011;63002;48.134;-1.948;2023-07-16T07:10:21;3.67;;;1.40;;
74519;SDS011;63002;48.134;-1.948;2023-07-16T07:12:47;2.70;;;0.90;;
74519;SDS011;63002;48.134;-1.948;2023-07-16T07:15:13;3.63;;;1.10;;
74519;SDS011;63002;48.134;-1.948;2023-07-16T07:17:39;3.27;;;1.00;;
74519;SDS011;63002;48.134;-1.948;2023-07-16T07:20:05;3.58;;;1.10;;
74519;SDS011;63002;48.134;-1.948;2023-07-16T07:22:31;5.13;;;0.90;;
74519;SDS011;63002;48.134;-1.948;2023-07-16T07:24:57;3.50;;;1.03;;
74519;SDS011;63002;48.134;-1.948;2023-07-16T07:27:23;3.63;;;1.00;;
74519;SDS011;63002;48.134;-1.948;2023-07-16T07:29:49;3.22;;;1.15;;
74519;SDS011;63002;48.134;-1.948;2023-07-16T07:32:18;4.03;;;1.30;;
74519;SDS011;63002;48.134;-1.948;2023-07-16T07:34:45;2.90;;;0.70;;
74519;SDS011;63002;48.134;-1.948;2023-07-16T07:37:10;3.10;;;0.80;;
74519;SDS011;63002;48.134;-1.948;2023-07-16T07:39:36;2.37;;;0.70;;
74519;SDS011;63002;48.134;-1.948;2023-07-16T07:42:02;2.50;;;0.85;;
74519;SDS011;63002;48.134;-1.948;2023-07-16T07:44:28;2.97;;;1.10;;
74519;SDS011;63002;48.134;-1.948;2023-07-16T07:46:53;3.35;;;1.08;;
74519;SDS011;63002;48.134;-1.948;2023-07-16T07:49:19;3.70;;;0.93;;
74519;SDS011;63002;48.134;-1.948;2023-07-16T07:51:45;2.30;;;0.88;;
74519;SDS011;63002;48.134;-1.948;2023-07-16T07:54:12;4.35;;;1.13;;
74519;SDS011;63002;48.134;-1.948;2023-07-16T07:56:38;4.03;;;1.17;;
74519;SDS011;63002;48.134;-1.948;2023-07-16T07:59:04;3.60;;;0.88;;
74519;SDS011;63002;48.134;-1.948;2023-07-16T08:01:29;2.93;;;0.90;;
74519;SDS011;63002;48.134;-1.948;2023-07-16T08:03:55;3.47;;;1.00;;
74519;SDS011;63002;48.134;-1.948;2023-07-16T08:06:21;3.55;;;1.13;;
74519;SDS011;63002;48.134;-1.948;2023-07-16T08:08:47;3.00;;;0.70;;
74519;SDS011;63002;48.134;-1.948;2023-07-16T08:11:12;2.90;;;0.70;;
74519;SDS011;63002;48.134;-1.948;2023-07-16T08:13:38;3.00;;;0.70;;
74519;SDS011;63002;48.134;-1.948;2023-07-16T08:16:04;3.00;;;0.90;;
74519;SDS011;63002;48.134;-1.948;2023-07-16T08:18:29;3.17;;;1.08;;
74519;SDS011;63002;48.134;-1.948;2023-07-16T08:20:55;3.00;;;0.80;;
74519;SDS011;63002;48.134;-1.948;2023-07-16T08:23:21;3.70;;;1.10;;
74519;SDS011;63002;48.134;-1.948;2023-07-16T08:25:47;3.75;;;0.88;;
74519;SDS011;63002;48.134;-1.948;2023-07-16T08:28:12;2.60;;;0.98;;
74519;SDS011;63002;48.134;-1.948;2023-07-16T08:30:40;2.97;;;1.08;;
74519;SDS011;63002;48.134;-1.948;2023-07-16T08:33:05;3.10;;;0.90;;
74519;SDS011;63002;48.134;-1.948;2023-07-16T08:35:31;3.22;;;0.80;;
74519;SDS011;63002;48.134;-1.948;2023-07-16T08:37:57;2.22;;;0.70;;
74519;SDS011;63002;48.134;-1.948;2023-07-16T08:40:23;2.15;;;0.70;;
74519;SDS011;63002;48.134;-1.948;2023-07-16T08:42:49;3.35;;;1.20;;
74519;SDS011;63002;48.134;-1.948;2023-07-16T08:45:16;3.22;;;0.80;;
74519;SDS011;63002;48.134;-1.948;2023-07-16T08:47:42;2.42;;;0.70;;
74519;SDS011;63002;48.134;-1.948;2023-07-16T08:50:08;2.95;;;0.90;;
74519;SDS011;63002;48.134;-1.948;2023-07-16T08:52:35;3.33;;;1.02;;
74519;SDS011;63002;48.134;-1.948;2023-07-16T08:55:01;2.57;;;0.87;;
74519;SDS011;63002;48.134;-1.948;2023-07-16T08:57:27;2.15;;;0.73;;
74519;SDS011;63002;48.134;-1.948;2023-07-16T08:59:53;3.22;;;0.93;;
74519;SDS011;63002;48.134;-1.948;2023-07-16T09:02:21;2.67;;;0.70;;
74519;SDS011;63002;48.134;-1.948;2023-07-16T09:04:48;2.03;;;0.63;;
74519;SDS011;63002;48.134;-1.948;2023-07-16T09:07:16;2.30;;;0.80;;
74519;SDS011;63002;48.134;-1.948;2023-07-16T09:09:41;2.17;;;0.65;;
74519;SDS011;63002;48.134;-1.948;2023-07-16T09:12:13;2.73;;;0.90;;
74519;SDS011;63002;48.134;-1.948;2023-07-16T09:14:42;1.67;;;0.50;;
74519;SDS011;63002;48.134;-1.948;2023-07-16T09:17:09;2.20;;;0.75;;
74519;SDS011;63002;48.134;-1.948;2023-07-16T09:19:34;2.53;;;0.73;;
74519;SDS011;63002;48.134;-1.948;2023-07-16T09:22:01;1.90;;;0.68;;
74519;SDS011;63002;48.134;-1.948;2023-07-16T09:24:28;2.30;;;0.65;;
74519;SDS011;63002;48.134;-1.948;2023-07-16T09:26:54;1.67;;;0.60;;
74519;SDS011;63002;48.134;-1.948;2023-07-16T09:29:21;2.78;;;0.75;;
74519;SDS011;63002;48.134;-1.948;2023-07-16T09:34:23;2.63;;;0.80;;
74519;SDS011;63002;48.134;-1.948;2023-07-16T09:36:49;2.28;;;0.80;;
74519;SDS011;63002;48.134;-1.948;2023-07-16T09:39:18;2.13;;;0.80;;
74519;SDS011;63002;48.134;-1.948;2023-07-16T09:41:48;1.70;;;0.60;;
74519;SDS011;63002;48.134;-1.948;2023-07-16T09:44:15;1.85;;;0.70;;
74519;SDS011;63002;48.134;-1.948;2023-07-16T09:46:41;2.10;;;0.70;;
74519;SDS011;63002;48.134;-1.948;2023-07-16T09:49:08;3.28;;;0.70;;
74519;SDS011;63002;48.134;-1.948;2023-07-16T09:51:35;1.93;;;0.50;;
74519;SDS011;63002;48.134;-1.948;2023-07-16T09:54:02;2.30;;;0.70;;
74519;SDS011;63002;48.134;-1.948;2023-07-16T09:56:32;1.92;;;0.75;;
74519;SDS011;63002;48.134;-1.948;2023-07-16T09:59:01;1.92;;;0.60;;
74519;SDS011;63002;48.134;-1.948;2023-07-16T10:01:30;2.50;;;0.70;;
74519;SDS011;63002;48.134;-1.948;2023-07-16T10:03:56;2.40;;;0.67;;
74519;SDS011;63002;48.134;-1.948;2023-07-16T10:06:22;1.80;;;0.80;;
74519;SDS011;63002;48.134;-1.948;2023-07-16T10:08:50;2.10;;;0.60;;
74519;SDS011;63002;48.134;-1.948;2023-07-16T10:11:16;2.45;;;0.70;;
74519;SDS011;63002;48.134;-1.948;2023-07-16T10:13:43;1.80;;;0.70;;
74519;SDS011;63002;48.134;-1.948;2023-07-16T10:16:21;1.83;;;0.70;;
74519;SDS011;63002;48.134;-1.948;2023-07-16T10:18:51;2.88;;;0.80;;
74519;SDS011;63002;48.134;-1.948;2023-07-16T10:21:24;1.90;;;0.70;;
74519;SDS011;63002;48.134;-1.948;2023-07-16T10:23:56;2.03;;;0.60;;
74519;SDS011;63002;48.134;-1.948;2023-07-16T10:26:26;2.28;;;0.80;;
74519;SDS011;63002;48.134;-1.948;2023-07-16T10:28:55;2.47;;;0.80;;
74519;SDS011;63002;48.134;-1.948;2023-07-16T10:31:25;1.50;;;0.50;;
74519;SDS011;63002;48.134;-1.948;2023-07-16T10:33:58;1.38;;;0.45;;
74519;SDS011;63002;48.134;-1.948;2023-07-16T10:36:29;2.67;;;0.80;;
74519;SDS011;63002;48.134;-1.948;2023-07-16T10:39:01;2.22;;;0.60;;
74519;SDS011;63002;48.134;-1.948;2023-07-16T10:41:30;1.85;;;0.68;;
74519;SDS011;63002;48.134;-1.948;2023-07-16T10:43:56;1.00;;;0.37;;
74519;SDS011;63002;48.134;-1.948;2023-07-16T10:46:22;1.52;;;0.50;;
74519;SDS011;63002;48.134;-1.948;2023-07-16T10:48:49;1.65;;;0.60;;
74519;SDS011;63002;48.134;-1.948;2023-07-16T10:51:15;2.03;;;0.60;;
74519;SDS011;63002;48.134;-1.948;2023-07-16T10:53:42;1.35;;;0.50;;
74519;SDS011;63002;48.134;-1.948;2023-07-16T10:56:08;1.92;;;0.60;;
74519;SDS011;63002;48.134;-1.948;2023-07-16T10:58:36;1.38;;;0.43;;
74519;SDS011;63002;48.134;-1.948;2023-07-16T11:01:02;2.63;;;0.73;;
74519;SDS011;63002;48.134;-1.948;2023-07-16T11:03:28;1.55;;;0.50;;
74519;SDS011;63002;48.134;-1.948;2023-07-16T11:05:53;1.38;;;0.40;;
74519;SDS011;63002;48.134;-1.948;2023-07-16T11:08:23;1.37;;;0.40;;
74519;SDS011;63002;48.134;-1.948;2023-07-16T11:10:53;1.85;;;0.57;;
74519;SDS011;63002;48.134;-1.948;2023-07-16T11:13:19;1.88;;;0.50;;
74519;SDS011;63002;48.134;-1.948;2023-07-16T11:15:49;2.05;;;0.55;;
74519;SDS011;63002;48.134;-1.948;2023-07-16T11:18:15;1.30;;;0.40;;
74519;SDS011;63002;48.134;-1.948;2023-07-16T11:20:41;1.63;;;0.45;;
74519;SDS011;63002;48.134;-1.948;2023-07-16T11:23:06;1.37;;;0.50;;
74519;SDS011;63002;48.134;-1.948;2023-07-16T11:25:35;1.10;;;0.40;;
74519;SDS011;63002;48.134;-1.948;2023-07-16T11:28:01;1.20;;;0.40;;
74519;SDS011;63002;48.134;-1.948;2023-07-16T11:30:27;1.13;;;0.43;;
74519;SDS011;63002;48.134;-1.948;2023-07-16T11:32:53;1.25;;;0.43;;
74519;SDS011;63002;48.134;-1.948;2023-07-16T11:35:20;1.63;;;0.55;;
74519;SDS011;63002;48.134;-1.948;2023-07-16T11:37:46;1.38;;;0.63;;
74519;SDS011;63002;48.134;-1.948;2023-07-16T11:40:15;2.80;;;0.60;;
74519;SDS011;63002;48.134;-1.948;2023-07-16T11:42:43;1.50;;;0.50;;
74519;SDS011;63002;48.134;-1.948;2023-07-16T11:45:19;1.33;;;0.57;;
74519;SDS011;63002;48.134;-1.948;2023-07-16T11:47:48;1.90;;;0.50;;
74519;SDS011;63002;48.134;-1.948;2023-07-16T11:50:14;1.55;;;0.50;;
74519;SDS011;63002;48.134;-1.948;2023-07-16T11:52:40;1.67;;;0.55;;
74519;SDS011;63002;48.134;-1.948;2023-07-16T11:55:06;1.40;;;0.50;;
74519;SDS011;63002;48.134;-1.948;2023-07-16T11:57:33;1.65;;;0.50;;
74519;SDS011;63002;48.134;-1.948;2023-07-16T11:59:59;2.25;;;0.50;;
74519;SDS011;63002;48.134;-1.948;2023-07-16T12:02:26;1.07;;;0.30;;
74519;SDS011;63002;48.134;-1.948;2023-07-16T12:04:52;1.40;;;0.50;;
74519;SDS011;63002;48.134;-1.948;2023-07-16T12:10:13;1.30;;;0.40;;
74519;SDS011;63002;48.134;-1.948;2023-07-16T12:12:39;2.78;;;0.50;;
74519;SDS011;63002;48.134;-1.948;2023-07-16T12:15:06;1.53;;;0.60;;
74519;SDS011;63002;48.134;-1.948;2023-07-16T12:17:32;1.38;;;0.50;;
74519;SDS011;63002;48.134;-1.948;2023-07-16T12:19:58;1.38;;;0.50;;
74519;SDS011;63002;48.134;-1.948;2023-07-16T12:22:24;1.70;;;0.60;;
74519;SDS011;63002;48.134;-1.948;2023-07-16T12:24:50;1.10;;;0.40;;
74519;SDS011;63002;48.134;-1.948;2023-07-16T12:27:15;1.33;;;0.40;;
74519;SDS011;63002;48.134;-1.948;2023-07-16T12:29:41;1.25;;;0.40;;
74519;SDS011;63002;48.134;-1.948;2023-07-16T12:32:07;1.25;;;0.47;;
74519;SDS011;63002;48.134;-1.948;2023-07-16T12:34:33;1.88;;;0.57;;
74519;SDS011;63002;48.134;-1.948;2023-07-16T12:36:59;1.20;;;0.40;;
74519;SDS011;63002;48.134;-1.948;2023-07-16T12:39:25;1.55;;;0.70;;
74519;SDS011;63002;48.134;-1.948;2023-07-16T12:41:51;1.47;;;0.40;;
74519;SDS011;63002;48.134;-1.948;2023-07-16T12:44:16;1.27;;;0.50;;
74519;SDS011;63002;48.134;-1.948;2023-07-16T12:46:42;1.33;;;0.40;;
74519;SDS011;63002;48.134;-1.948;2023-07-16T12:49:08;1.48;;;0.50;;
74519;SDS011;63002;48.134;-1.948;2023-07-16T12:51:33;1.45;;;0.45;;
74519;SDS011;63002;48.134;-1.948;2023-07-16T12:53:59;1.25;;;0.40;;
74519;SDS011;63002;48.134;-1.948;2023-07-16T12:56:26;1.05;;;0.43;;
74519;SDS011;63002;48.134;-1.948;2023-07-16T12:58:52;1.33;;;0.57;;
74519;SDS011;63002;48.134;-1.948;2023-07-16T13:01:17;1.38;;;0.50;;
74519;SDS011;63002;48.134;-1.948;2023-07-16T13:03:43;1.47;;;0.40;;
74519;SDS011;63002;48.134;-1.948;2023-07-16T13:06:09;1.67;;;0.60;;
74519;SDS011;63002;48.134;-1.948;2023-07-16T13:08:35;1.50;;;0.50;;
74519;SDS011;63002;48.134;-1.948;2023-07-16T13:11:01;1.73;;;0.57;;
74519;SDS011;63002;48.134;-1.948;2023-07-16T13:13:28;1.38;;;0.50;;
74519;SDS011;63002;48.134;-1.948;2023-07-16T13:15:54;1.57;;;0.60;;
74519;SDS011;63002;48.134;-1.948;2023-07-16T13:18:20;1.63;;;0.70;;
74519;SDS011;63002;48.134;-1.948;2023-07-16T13:20:46;1.10;;;0.50;;
74519;SDS011;63002;48.134;-1.948;2023-07-16T13:23:12;1.38;;;0.57;;
74519;SDS011;63002;48.134;-1.948;2023-07-16T13:25:38;0.87;;;0.30;;
74519;SDS011;63002;48.134;-1.948;2023-07-16T13:28:07;1.27;;;0.35;;
74519;SDS011;63002;48.134;-1.948;2023-07-16T13:30:33;1.55;;;0.60;;
74519;SDS011;63002;48.134;-1.948;2023-07-16T13:32:59;1.52;;;0.50;;
74519;SDS011;63002;48.134;-1.948;2023-07-16T13:35:26;1.43;;;0.47;;
74519;SDS011;63002;48.134;-1.948;2023-07-16T13:37:52;1.63;;;0.40;;
74519;SDS011;63002;48.134;-1.948;2023-07-16T13:40:18;1.52;;;0.50;;
74519;SDS011;63002;48.134;-1.948;2023-07-16T13:42:46;1.10;;;0.40;;
74519;SDS011;63002;48.134;-1.948;2023-07-16T13:45:12;1.70;;;0.57;;
74519;SDS011;63002;48.134;-1.948;2023-07-16T13:47:38;1.20;;;0.50;;
74519;SDS011;63002;48.134;-1.948;2023-07-16T13:50:04;1.07;;;0.40;;
74519;SDS011;63002;48.134;-1.948;2023-07-16T13:52:30;1.52;;;0.50;;
74519;SDS011;63002;48.134;-1.948;2023-07-16T13:54:56;1.30;;;0.50;;
74519;SDS011;63002;48.134;-1.948;2023-07-16T13:57:21;1.30;;;0.40;;
74519;SDS011;63002;48.134;-1.948;2023-07-16T13:59:47;1.00;;;0.32;;
74519;SDS011;63002;48.134;-1.948;2023-07-16T14:02:13;1.97;;;0.57;;
74519;SDS011;63002;48.134;-1.948;2023-07-16T14:04:39;1.55;;;0.50;;
74519;SDS011;63002;48.134;-1.948;2023-07-16T14:07:04;1.60;;;0.70;;
74519;SDS011;63002;48.134;-1.948;2023-07-16T14:09:31;1.60;;;0.60;;
74519;SDS011;63002;48.134;-1.948;2023-07-16T14:11:57;1.33;;;0.40;;
74519;SDS011;63002;48.134;-1.948;2023-07-16T14:14:23;1.55;;;0.68;;
74519;SDS011;63002;48.134;-1.948;2023-07-16T14:16:48;1.58;;;0.47;;
74519;SDS011;63002;48.134;-1.948;2023-07-16T14:19:14;1.13;;;0.43;;
74519;SDS011;63002;48.134;-1.948;2023-07-16T14:21:40;1.27;;;0.50;;
74519;SDS011;63002;48.134;-1.948;2023-07-16T14:24:06;1.83;;;0.70;;
74519;SDS011;63002;48.134;-1.948;2023-07-16T14:26:32;1.87;;;0.63;;
74519;SDS011;63002;48.134;-1.948;2023-07-16T14:29:01;1.20;;;0.47;;
74519;SDS011;63002;48.134;-1.948;2023-07-16T14:31:26;1.27;;;0.50;;
74519;SDS011;63002;48.134;-1.948;2023-07-16T14:33:52;2.15;;;0.68;;
74519;SDS011;63002;48.134;-1.948;2023-07-16T14:36:18;1.90;;;0.50;;
74519;SDS011;63002;48.134;-1.948;2023-07-16T14:38:43;2.00;;;0.50;;
74519;SDS011;63002;48.134;-1.948;2023-07-16T14:41:09;1.80;;;0.50;;
74519;SDS011;63002;48.134;-1.948;2023-07-16T14:43:35;2.50;;;0.50;;
74519;SDS011;63002;48.134;-1.948;2023-07-16T14:46:02;1.75;;;0.45;;
74519;SDS011;63002;48.134;-1.948;2023-07-16T14:48:28;2.08;;;0.52;;
74519;SDS011;63002;48.134;-1.948;2023-07-16T14:50:54;1.27;;;0.40;;
74519;SDS011;63002;48.134;-1.948;2023-07-16T14:53:20;1.10;;;0.40;;
74519;SDS011;63002;48.134;-1.948;2023-07-16T14:55:46;1.93;;;0.60;;
74519;SDS011;63002;48.134;-1.948;2023-07-16T14:58:13;1.65;;;0.52;;
74519;SDS011;63002;48.134;-1.948;2023-07-16T15:00:39;1.35;;;0.47;;
74519;SDS011;63002;48.134;-1.948;2023-07-16T15:03:04;2.07;;;0.60;;
74519;SDS011;63002;48.134;-1.948;2023-07-16T15:05:31;1.50;;;0.40;;
74519;SDS011;63002;48.134;-1.948;2023-07-16T15:07:56;1.60;;;0.47;;
74519;SDS011;63002;48.134;-1.948;2023-07-16T15:10:22;1.33;;;0.40;;
74519;SDS011;63002;48.134;-1.948;2023-07-16T15:12:48;1.20;;;0.40;;
74519;SDS011;63002;48.134;-1.948;2023-07-16T15:15:14;1.48;;;0.60;;
74519;SDS011;63002;48.134;-1.948;2023-07-16T15:17:39;2.20;;;0.63;;
74519;SDS011;63002;48.134;-1.948;2023-07-16T15:20:05;1.27;;;0.45;;
74519;SDS011;63002;48.134;-1.948;2023-07-16T15:22:33;2.17;;;0.60;;
74519;SDS011;63002;48.134;-1.948;2023-07-16T15:24:59;1.80;;;0.60;;
74519;SDS011;63002;48.134;-1.948;2023-07-16T15:27:26;1.60;;;0.50;;
74519;SDS011;63002;48.134;-1.948;2023-07-16T15:29:51;1.48;;;0.45;;
74519;SDS011;63002;48.134;-1.948;2023-07-16T15:32:17;1.80;;;0.57;;
74519;SDS011;63002;48.134;-1.948;2023-07-16T15:34:43;1.83;;;0.60;;
74519;SDS011;63002;48.134;-1.948;2023-07-16T15:37:09;1.85;;;0.47;;
74519;SDS011;63002;48.134;-1.948;2023-07-16T15:39:34;1.42;;;0.50;;
74519;SDS011;63002;48.134;-1.948;2023-07-16T15:42:00;1.73;;;0.60;;
74519;SDS011;63002;48.134;-1.948;2023-07-16T15:44:26;1.63;;;0.50;;
74519;SDS011;63002;48.134;-1.948;2023-07-16T15:46:52;2.40;;;0.60;;
74519;SDS011;63002;48.134;-1.948;2023-07-16T15:49:18;1.65;;;0.50;;
74519;SDS011;63002;48.134;-1.948;2023-07-16T15:51:44;2.17;;;0.45;;
74519;SDS011;63002;48.134;-1.948;2023-07-16T15:54:10;1.57;;;0.50;;
74519;SDS011;63002;48.134;-1.948;2023-07-16T15:56:35;2.03;;;0.60;;
74519;SDS011;63002;48.134;-1.948;2023-07-16T15:59:01;1.27;;;0.40;;
74519;SDS011;63002;48.134;-1.948;2023-07-16T16:01:27;2.42;;;0.60;;
74519;SDS011;63002;48.134;-1.948;2023-07-16T16:03:53;2.30;;;0.80;;
74519;SDS011;63002;48.134;-1.948;2023-07-16T16:06:18;1.55;;;0.47;;
74519;SDS011;63002;48.134;-1.948;2023-07-16T16:08:44;1.63;;;0.40;;
74519;SDS011;63002;48.134;-1.948;2023-07-16T16:11:10;3.08;;;0.80;;
74519;SDS011;63002;48.134;-1.948;2023-07-16T16:13:36;1.88;;;0.70;;
74519;SDS011;63002;48.134;-1.948;2023-07-16T16:16:02;2.38;;;0.63;;
74519;SDS011;63002;48.134;-1.948;2023-07-16T16:18:28;2.35;;;0.80;;
74519;SDS011;63002;48.134;-1.948;2023-07-16T16:20:54;1.73;;;0.50;;
74519;SDS011;63002;48.134;-1.948;2023-07-16T16:23:20;2.25;;;0.85;;
74519;SDS011;63002;48.134;-1.948;2023-07-16T16:25:46;2.13;;;0.90;;
74519;SDS011;63002;48.134;-1.948;2023-07-16T16:28:12;2.40;;;0.80;;
74519;SDS011;63002;48.134;-1.948;2023-07-16T16:30:38;2.57;;;0.70;;
74519;SDS011;63002;48.134;-1.948;2023-07-16T16:33:05;2.30;;;0.70;;
74519;SDS011;63002;48.134;-1.948;2023-07-16T16:35:33;1.55;;;0.45;;
74519;SDS011;63002;48.134;-1.948;2023-07-16T16:38:01;2.10;;;0.60;;
74519;SDS011;63002;48.134;-1.948;2023-07-16T16:40:27;2.53;;;0.67;;
74519;SDS011;63002;48.134;-1.948;2023-07-16T16:42:53;2.20;;;0.70;;
74519;SDS011;63002;48.134;-1.948;2023-07-16T16:45:19;1.50;;;0.52;;
74519;SDS011;63002;48.134;-1.948;2023-07-16T16:47:45;2.03;;;0.60;;
74519;SDS011;63002;48.134;-1.948;2023-07-16T16:50:11;1.80;;;0.68;;
74519;SDS011;63002;48.134;-1.948;2023-07-16T16:52:38;2.97;;;0.68;;
74519;SDS011;63002;48.134;-1.948;2023-07-16T16:55:04;1.67;;;0.67;;
74519;SDS011;63002;48.134;-1.948;2023-07-16T16:57:31;2.08;;;0.70;;
74519;SDS011;63002;48.134;-1.948;2023-07-16T16:59:57;2.38;;;0.60;;
74519;SDS011;63002;48.134;-1.948;2023-07-16T17:02:23;1.77;;;0.60;;
74519;SDS011;63002;48.134;-1.948;2023-07-16T17:04:49;1.77;;;0.50;;
74519;SDS011;63002;48.134;-1.948;2023-07-16T17:07:15;2.13;;;0.60;;
74519;SDS011;63002;48.134;-1.948;2023-07-16T17:09:41;1.83;;;0.70;;
74519;SDS011;63002;48.134;-1.948;2023-07-16T17:12:08;2.40;;;0.90;;
74519;SDS011;63002;48.134;-1.948;2023-07-16T17:14:35;2.25;;;0.70;;
74519;SDS011;63002;48.134;-1.948;2023-07-16T17:17:01;2.00;;;0.88;;
74519;SDS011;63002;48.134;-1.948;2023-07-16T17:19:27;1.88;;;0.60;;
74519;SDS011;63002;48.134;-1.948;2023-07-16T17:21:53;1.93;;;0.60;;
74519;SDS011;63002;48.134;-1.948;2023-07-16T17:24:19;1.75;;;0.50;;
74519;SDS011;63002;48.134;-1.948;2023-07-16T17:26:44;1.47;;;0.50;;
74519;SDS011;63002;48.134;-1.948;2023-07-16T17:29:11;2.08;;;0.60;;
74519;SDS011;63002;48.134;-1.948;2023-07-16T17:31:36;2.08;;;0.57;;
74519;SDS011;63002;48.134;-1.948;2023-07-16T17:34:02;1.63;;;0.60;;
74519;SDS011;63002;48.134;-1.948;2023-07-16T17:36:29;2.70;;;0.75;;
74519;SDS011;63002;48.134;-1.948;2023-07-16T17:38:55;1.88;;;0.65;;
74519;SDS011;63002;48.134;-1.948;2023-07-16T17:41:20;2.50;;;0.70;;
74519;SDS011;63002;48.134;-1.948;2023-07-16T17:43:46;1.77;;;0.63;;
74519;SDS011;63002;48.134;-1.948;2023-07-16T17:46:12;1.70;;;0.40;;
74519;SDS011;63002;48.134;-1.948;2023-07-16T17:48:38;2.13;;;0.73;;
74519;SDS011;63002;48.134;-1.948;2023-07-16T17:51:03;1.83;;;0.50;;
74519;SDS011;63002;48.134;-1.948;2023-07-16T17:53:29;1.77;;;0.47;;
74519;SDS011;63002;48.134;-1.948;2023-07-16T17:55:56;2.13;;;0.65;;
74519;SDS011;63002;48.134;-1.948;2023-07-16T17:58:22;2.08;;;0.60;;
74519;SDS011;63002;48.134;-1.948;2023-07-16T18:00:48;3.43;;;0.70;;
74519;SDS011;63002;48.134;-1.948;2023-07-16T18:03:20;1.70;;;0.55;;
74519;SDS011;63002;48.134;-1.948;2023-07-16T18:05:46;1.77;;;0.50;;
74519;SDS011;63002;48.134;-1.948;2023-07-16T18:08:13;2.05;;;0.73;;
74519;SDS011;63002;48.134;-1.948;2023-07-16T18:10:39;1.90;;;0.50;;
74519;SDS011;63002;48.134;-1.948;2023-07-16T18:13:08;2.25;;;0.70;;
74519;SDS011;63002;48.134;-1.948;2023-07-16T18:15:34;2.75;;;0.60;;
74519;SDS011;63002;48.134;-1.948;2023-07-16T18:18:02;2.05;;;0.50;;
74519;SDS011;63002;48.134;-1.948;2023-07-16T18:20:28;1.98;;;0.65;;
74519;SDS011;63002;48.134;-1.948;2023-07-16T18:22:54;1.30;;;0.40;;
74519;SDS011;63002;48.134;-1.948;2023-07-16T18:25:19;1.80;;;0.70;;
74519;SDS011;63002;48.134;-1.948;2023-07-16T18:27:45;3.13;;;0.80;;
74519;SDS011;63002;48.134;-1.948;2023-07-16T18:30:11;1.83;;;0.60;;
74519;SDS011;63002;48.134;-1.948;2023-07-16T18:32:37;1.53;;;0.60;;
74519;SDS011;63002;48.134;-1.948;2023-07-16T18:35:03;2.08;;;0.40;;
74519;SDS011;63002;48.134;-1.948;2023-07-16T18:37:29;2.90;;;0.70;;
74519;SDS011;63002;48.134;-1.948;2023-07-16T18:39:55;1.85;;;0.50;;
74519;SDS011;63002;48.134;-1.948;2023-07-16T18:42:22;2.20;;;0.90;;
74519;SDS011;63002;48.134;-1.948;2023-07-16T18:44:54;1.77;;;0.50;;
74519;SDS011;63002;48.134;-1.948;2023-07-16T18:47:28;1.30;;;0.50;;
74519;SDS011;63002;48.134;-1.948;2023-07-16T18:49:54;1.80;;;0.55;;
74519;SDS011;63002;48.134;-1.948;2023-07-16T18:52:23;2.40;;;0.77;;
74519;SDS011;63002;48.134;-1.948;2023-07-16T18:54:49;1.77;;;0.43;;
74519;SDS011;63002;48.134;-1.948;2023-07-16T18:57:15;1.67;;;0.40;;
74519;SDS011;63002;48.134;-1.948;2023-07-16T18:59:41;1.88;;;0.77;;
74519;SDS011;63002;48.134;-1.948;2023-07-16T19:02:07;2.00;;;0.50;;
74519;SDS011;63002;48.134;-1.948;2023-07-16T19:04:33;1.30;;;0.50;;
74519;SDS011;63002;48.134;-1.948;2023-07-16T19:06:59;2.43;;;0.80;;
74519;SDS011;63002;48.134;-1.948;2023-07-16T19:09:26;1.90;;;0.65;;
74519;SDS011;63002;48.134;-1.948;2023-07-16T19:11:52;1.88;;;0.70;;
74519;SDS011;63002;48.134;-1.948;2023-07-16T19:14:18;1.63;;;0.60;;
74519;SDS011;63002;48.134;-1.948;2023-07-16T19:16:43;1.33;;;0.50;;
74519;SDS011;63002;48.134;-1.948;2023-07-16T19:19:09;1.42;;;0.50;;
74519;SDS011;63002;48.134;-1.948;2023-07-16T19:21:35;1.00;;;0.40;;
74519;SDS011;63002;48.134;-1.948;2023-07-16T19:24:00;1.85;;;0.68;;
74519;SDS011;63002;48.134;-1.948;2023-07-16T19:26:27;2.50;;;0.90;;
74519;SDS011;63002;48.134;-1.948;2023-07-16T19:28:53;1.60;;;0.60;;
74519;SDS011;63002;48.134;-1.948;2023-07-16T19:31:19;1.75;;;0.60;;
74519;SDS011;63002;48.134;-1.948;2023-07-16T19:33:45;1.85;;;0.45;;